Time;durP1;ratioP1;P1;durP2;ratioP2;P2;SDS_P1;SDS_P2;PMS_P1;PMS_P2;Temp;Humidity;BMP_temperature;BMP_pressure;BME280_temperature;BME280_humidity;BME280_pressure;Samples;Min_cycle;Max_cycle;Signal;HPM_P1;HPM_P2
2022/12/27 00:01:31;;;;;;;1999.90;999.90;;;4.40;1.00;;;;;;5055474;28;20207;-69
2022/12/27 00:03:57;;;;;;;1999.90;999.90;;;4.40;1.00;;;;;;5055165;28;20182;-69
2022/12/27 00:06:24;;;;;;;1999.90;999.90;;;4.40;1.00;;;;;;5055057;28;20309;-69
2022/12/27 00:08:50;;;;;;;1999.90;999.90;;;4.40;1.00;;;;;;5055031;28;20168;-69
2022/12/27 00:11:18;;;;;;;1999.90;999.90;;;4.40;1.00;;;;;;5055061;28;20401;-69
2022/12/27 00:13:44;;;;;;;1999.90;999.90;;;4.40;1.00;;;;;;5055258;28;20175;-70
2022/12/27 00:16:13;;;;;;;1999.90;999.90;;;4.30;1.50;;;;;;5055100;28;20445;-69
2022/12/27 00:18:39;;;;;;;1999.90;999.90;;;4.30;3.30;;;;;;5054768;28;20171;-69
2022/12/27 00:21:06;;;;;;;1999.90;999.90;;;4.30;6.60;;;;;;5054977;28;20918;-69
2022/12/27 00:23:35;;;;;;;1999.90;999.90;;;4.30;9.60;;;;;;5054812;28;20430;-69
2022/12/27 00:26:06;;;;;;;1999.90;999.90;;;4.30;9.20;;;;;;5054660;28;21026;-69
2022/12/27 00:28:33;;;;;;;1999.90;999.90;;;4.30;13.80;;;;;;5054787;28;20397;-69
2022/12/27 00:31:00;;;;;;;1999.90;999.90;;;4.30;20.00;;;;;;5054746;28;20410;-69
2022/12/27 00:33:27;;;;;;;1999.90;999.90;;;4.30;22.50;;;;;;5054761;28;20403;-70
2022/12/27 00:35:53;;;;;;;1999.90;999.90;;;4.30;24.70;;;;;;5054461;28;20437;-69
2022/12/27 00:38:19;;;;;;;1999.90;999.90;;;4.30;23.80;;;;;;5054451;28;20402;-68
2022/12/27 00:40:45;;;;;;;1999.90;999.90;;;4.30;21.30;;;;;;5054453;28;20779;-69
2022/12/27 00:43:10;;;;;;;1999.90;999.90;;;4.30;19.60;;;;;;5054518;28;20413;-69
2022/12/27 00:45:36;;;;;;;1999.90;999.90;;;4.30;22.70;;;;;;5054254;28;20214;-68
2022/12/27 00:48:01;;;;;;;1999.90;999.90;;;4.30;29.80;;;;;;5054217;28;20224;-69
2022/12/27 00:50:27;;;;;;;1999.90;999.90;;;4.30;30.30;;;;;;5054317;28;20172;-69
2022/12/27 00:52:53;;;;;;;1999.90;999.90;;;4.30;36.80;;;;;;5054281;28;20218;-69
2022/12/27 00:55:18;;;;;;;1999.90;999.90;;;4.30;38.20;;;;;;5054208;28;20198;-69
2022/12/27 00:57:44;;;;;;;1999.90;999.90;;;4.40;43.40;;;;;;5054083;28;20752;-69
2022/12/27 01:00:10;;;;;;;1999.90;999.90;;;4.40;42.40;;;;;;5053559;28;20172;-69
2022/12/27 01:02:36;;;;;;;1999.90;999.90;;;4.40;45.60;;;;;;5054043;28;20582;-69
2022/12/27 01:05:02;;;;;;;1999.90;999.90;;;4.40;40.80;;;;;;5053925;28;20472;-69
2022/12/27 01:07:27;;;;;;;1999.90;999.90;;;4.50;39.20;;;;;;5053843;28;20402;-68
2022/12/27 01:09:53;;;;;;;1999.90;999.90;;;4.40;41.50;;;;;;5053913;28;20179;-69
2022/12/27 01:12:18;;;;;;;1999.90;999.90;;;4.40;46.40;;;;;;5053990;28;20172;-68
2022/12/27 01:14:44;;;;;;;1999.90;999.90;;;4.40;49.40;;;;;;5053955;28;20818;-69
2022/12/27 01:17:10;;;;;;;1999.90;999.90;;;4.40;57.10;;;;;;5053817;28;20175;-69
2022/12/27 01:19:37;;;;;;;1999.90;999.90;;;4.40;59.70;;;;;;5053553;28;20468;-68
2022/12/27 01:22:04;;;;;;;1999.90;999.90;;;4.40;58.50;;;;;;5053780;28;20271;-69
2022/12/27 01:24:30;;;;;;;1999.90;999.90;;;4.50;73.50;;;;;;5053601;28;20453;-69
2022/12/27 01:26:55;;;;;;;1999.90;999.90;;;4.50;70.80;;;;;;5053571;28;20454;-68
2022/12/27 01:29:21;;;;;;;1999.90;999.90;;;4.60;76.70;;;;;;5053615;28;20458;-69
2022/12/27 01:31:48;;;;;;;1999.90;999.90;;;4.60;73.10;;;;;;5053581;28;20198;-69
2022/12/27 01:34:14;;;;;;;1999.90;999.90;;;4.50;84.20;;;;;;5053349;28;20183;-69
2022/12/27 01:36:40;;;;;;;1999.90;999.90;;;4.60;68.10;;;;;;5053400;28;20406;-69
2022/12/27 01:39:07;;;;;;;1999.90;999.90;;;4.60;62.70;;;;;;5053263;28;20402;-69
2022/12/27 01:44:48;;;;;;;1999.90;999.90;;;4.60;71.30;;;;;;5053442;28;20498;-69
2022/12/27 01:47:16;;;;;;;1999.90;999.90;;;4.60;82.60;;;;;;5053165;28;20954;-70
2022/12/27 01:49:52;;;;;;;1999.90;999.90;;;4.70;81.30;;;;;;5053303;28;20186;-69
2022/12/27 01:52:18;;;;;;;1999.90;999.90;;;4.70;79.30;;;;;;5053378;28;20965;-70
2022/12/27 01:54:45;;;;;;;1999.90;999.90;;;4.70;78.40;;;;;;5053064;28;20521;-69
2022/12/27 01:57:10;;;;;;;1999.90;999.90;;;4.60;83.40;;;;;;5053039;28;20560;-69
2022/12/27 01:59:36;;;;;;;1999.90;999.90;;;4.70;91.90;;;;;;5052853;28;20493;-69
2022/12/27 02:02:02;;;;;;;1999.90;999.90;;;4.70;91.50;;;;;;5053009;28;20532;-68
2022/12/27 02:04:30;;;;;;;1999.90;999.90;;;4.70;93.30;;;;;;5052584;28;20461;-69
2022/12/27 02:06:57;;;;;;;1999.90;999.90;;;4.70;93.60;;;;;;5052893;28;20410;-69
2022/12/27 02:09:45;;;;;;;1999.90;999.90;;;4.70;94.50;;;;;;5052647;28;20497;-69
2022/12/27 02:12:11;;;;;;;1999.90;999.90;;;4.80;94.50;;;;;;5052579;28;20892;-70
2022/12/27 02:14:41;;;;;;;1999.90;999.90;;;4.80;92.90;;;;;;5052901;28;20423;-70
2022/12/27 02:17:13;;;;;;;1999.90;999.90;;;4.80;96.70;;;;;;5052656;28;20643;-69
2022/12/27 02:19:39;;;;;;;1999.90;999.90;;;4.80;95.60;;;;;;5052677;28;20391;-69
2022/12/27 02:22:19;;;;;;;1999.90;999.90;;;4.70;99.10;;;;;;5052761;28;20455;-69
2022/12/27 02:25:07;;;;;;;1999.90;999.90;;;4.80;99.90;;;;;;5052410;28;20199;-69
2022/12/27 02:27:48;;;;;;;1999.90;999.90;;;4.80;99.90;;;;;;5052425;28;20393;-69
2022/12/27 02:30:15;;;;;;;1999.90;999.90;;;4.80;99.90;;;;;;5052570;28;20403;-69
2022/12/27 02:32:59;;;;;;;1999.90;999.90;;;4.80;99.90;;;;;;5052431;28;20394;-70
2022/12/27 02:35:38;;;;;;;1999.90;999.90;;;4.80;99.90;;;;;;5052340;28;20423;-69
2022/12/27 02:38:11;;;;;;;1999.90;999.90;;;4.80;99.90;;;;;;5052163;28;20406;-70
2022/12/27 02:55:06;;;;;;;1999.90;999.90;;;4.80;99.90;;;;;;5052057;28;20421;-69
2022/12/27 02:58:09;;;;;;;1999.90;999.90;;;4.80;99.90;;;;;;5051837;28;20397;-69
2022/12/27 03:03:54;;;;;;;1999.90;999.90;;;4.80;99.90;;;;;;5052036;28;20436;-69
2022/12/27 03:06:42;;;;;;;1999.90;999.90;;;4.80;99.90;;;;;;5051823;28;20488;-68
2022/12/27 03:18:20;;;;;;;1999.90;999.90;;;4.80;99.90;;;;;;5051590;28;20467;-69
2022/12/27 03:26:23;;;;;;;1999.90;999.90;;;4.80;99.90;;;;;;5056087;28;20950;-69
2022/12/27 03:34:30;;;;;;;1999.90;999.90;;;4.80;99.90;;;;;;5056076;28;20460;-68
2022/12/27 03:40:04;;;;;;;1999.90;999.90;;;4.80;99.90;;;;;;5055913;28;20401;-68
2022/12/27 03:46:32;;;;;;;1999.90;999.90;;;4.80;99.90;;;;;;5055629;28;20500;-68
2022/12/27 03:48:09;;;;;;;1999.90;999.90;;;4.80;99.90;;;;;;5055133;28;20516;-69
2022/12/27 03:50:43;;;;;;;1999.90;999.90;;;4.80;99.90;;;;;;5055508;28;20414;-69
2022/12/27 03:53:17;;;;;;;1999.90;999.90;;;4.80;99.90;;;;;;5055439;28;20464;-69
2022/12/27 03:55:43;;;;;;;1999.90;999.90;;;4.80;99.90;;;;;;5055353;28;20426;-69
2022/12/27 03:58:09;;;;;;;1999.90;999.90;;;4.80;99.90;;;;;;5055058;28;20410;-69
2022/12/27 04:00:35;;;;;;;1999.90;999.90;;;4.80;99.90;;;;;;5055296;28;20816;-70
2022/12/27 04:03:00;;;;;;;1999.90;999.90;;;4.80;99.90;;;;;;5055238;28;20414;-69
2022/12/27 04:05:26;;;;;;;1999.90;999.90;;;4.80;99.90;;;;;;5055546;28;20207;-69
2022/12/27 04:35:12;;;;;;;1999.90;999.90;;;4.90;99.90;;;;;;5054864;28;20433;-70
2022/12/27 04:37:38;;;;;;;1999.90;999.90;;;4.90;99.90;;;;;;5054413;28;20414;-69
2022/12/27 04:56:29;;;;;;;1999.90;999.90;;;5.00;99.90;;;;;;5054345;28;20513;-69
2022/12/27 05:04:24;;;;;;;1999.90;999.90;;;4.80;99.90;;;;;;5054055;28;20503;-69
2022/12/27 05:06:50;;;;;;;1999.90;999.90;;;4.90;99.90;;;;;;5054058;28;20424;-69
2022/12/27 05:13:58;;;;;;;1999.90;999.90;;;5.00;99.90;;;;;;5054314;28;20171;-69
2022/12/27 05:14:45;;;;;;;1999.90;999.90;;;5.00;99.90;;;;;;5053691;28;20445;-69
2022/12/27 05:17:11;;;;;;;1999.90;999.90;;;5.00;99.90;;;;;;5053802;28;20402;-69
2022/12/27 05:19:36;;;;;;;1999.90;999.90;;;5.00;99.90;;;;;;5053682;28;20171;-69
2022/12/27 05:27:30;;;;;;;1999.90;999.90;;;5.00;99.90;;;;;;5053624;28;20541;-69
2022/12/27 05:29:56;;;;;;;1999.90;999.90;;;5.00;99.90;;;;;;5053550;28;20442;-70
2022/12/27 05:32:21;;;;;;;1999.90;999.90;;;4.90;99.90;;;;;;5053567;28;20163;-69
2022/12/27 05:34:47;;;;;;;1999.90;999.90;;;4.90;99.90;;;;;;5053532;28;20271;-70
2022/12/27 05:37:12;;;;;;;1999.90;999.90;;;4.90;99.90;;;;;;5053412;28;20175;-69
2022/12/27 05:39:38;;;;;;;1999.90;999.90;;;4.90;99.90;;;;;;5053379;28;20172;-68
2022/12/27 05:42:04;;;;;;;1999.90;999.90;;;4.90;99.90;;;;;;5053291;28;20720;-69
2022/12/27 05:44:29;;;;;;;1999.90;999.90;;;4.80;99.90;;;;;;5053131;28;20203;-70
2022/12/27 05:46:55;;;;;;;1999.90;999.90;;;4.80;99.90;;;;;;5052776;28;20186;-68
2022/12/27 05:49:20;;;;;;;1999.90;999.90;;;4.80;99.90;;;;;;5053105;28;20258;-68
2022/12/27 05:51:46;;;;;;;1999.90;999.90;;;4.80;99.90;;;;;;5053275;28;20164;-69
2022/12/27 05:54:12;;;;;;;1999.90;999.90;;;4.90;99.90;;;;;;5053082;28;20246;-70
2022/12/27 05:56:38;;;;;;;1999.90;999.90;;;4.80;99.90;;;;;;5053123;28;20171;-70
2022/12/27 05:59:04;;;;;;;1999.90;999.90;;;4.80;99.90;;;;;;5052829;28;20167;-69
2022/12/27 06:01:29;;;;;;;1999.90;999.90;;;4.80;99.90;;;;;;5053039;28;20236;-68
2022/12/27 06:03:55;;;;;;;1999.90;999.90;;;4.80;99.90;;;;;;5052941;28;20483;-69
2022/12/27 06:06:21;;;;;;;1999.90;999.90;;;4.80;99.90;;;;;;5052903;28;20191;-70
2022/12/27 06:08:46;;;;;;;1999.90;999.90;;;4.80;99.90;;;;;;5052726;28;20951;-69
2022/12/27 06:11:15;;;;;;;1999.90;999.90;;;4.90;99.90;;;;;;5052810;28;20171;-69
2022/12/27 06:13:42;;;;;;;1999.90;999.90;;;4.90;99.90;;;;;;5052816;28;20160;-69
2022/12/27 06:16:10;;;;;;;1999.90;999.90;;;4.90;99.90;;;;;;5054684;28;20912;-69
2022/12/27 06:18:37;;;;;;;1999.90;999.90;;;4.90;99.90;;;;;;5055147;28;20402;-69
2022/12/27 06:21:05;;;;;;;1999.90;999.90;;;4.80;99.90;;;;;;5054996;28;20406;-69
2022/12/27 06:23:33;;;;;;;1999.90;999.90;;;4.80;99.90;;;;;;5056370;28;20413;-70
2022/12/27 06:25:58;;;;;;;1999.90;999.90;;;4.90;99.90;;;;;;5057078;28;20963;-70
2022/12/27 06:28:24;;;;;;;1999.90;999.90;;;4.90;99.90;;;;;;5055706;28;20509;-69
2022/12/27 06:30:49;;;;;;;1999.90;999.90;;;4.90;99.90;;;;;;5055725;28;20172;-69
2022/12/27 06:33:15;;;;;;;1999.90;999.90;;;4.90;99.90;;;;;;5054449;28;20179;-69
2022/12/27 06:35:41;;;;;;;1999.90;999.90;;;4.90;99.90;;;;;;5052354;28;20230;-69
2022/12/27 06:38:06;;;;;;;1999.90;999.90;;;4.90;99.90;;;;;;5052191;28;20402;-69
2022/12/27 06:40:32;;;;;;;1999.90;999.90;;;4.90;99.90;;;;;;5052611;28;20186;-70
2022/12/27 06:42:57;;;;;;;1999.90;999.90;;;4.90;99.90;;;;;;5052430;28;20175;-70
2022/12/27 06:45:23;;;;;;;1999.90;999.90;;;4.80;99.90;;;;;;5052182;28;20676;-69
2022/12/27 06:47:49;;;;;;;1999.90;999.90;;;4.80;99.90;;;;;;5052031;28;20194;-69
2022/12/27 06:50:14;;;;;;;1999.90;999.90;;;4.80;99.90;;;;;;5052289;28;20167;-70
2022/12/27 06:52:40;;;;;;;1999.90;999.90;;;4.90;99.90;;;;;;5052199;28;20567;-71
2022/12/27 06:55:05;;;;;;;1999.90;999.90;;;4.80;99.90;;;;;;5052133;28;20187;-70
2022/12/27 06:57:31;;;;;;;1999.90;999.90;;;4.80;99.90;;;;;;5051951;28;20168;-68
2022/12/27 06:59:57;;;;;;;1999.90;999.90;;;4.80;99.90;;;;;;5051219;28;20178;-69
2022/12/27 07:02:22;;;;;;;1999.90;999.90;;;4.80;99.90;;;;;;5052067;28;20224;-69
2022/12/27 07:04:48;;;;;;;1999.90;999.90;;;4.80;99.90;;;;;;5051884;28;20542;-71
2022/12/27 07:07:13;;;;;;;1999.90;999.90;;;4.80;99.90;;;;;;5051951;28;20167;-69
2022/12/27 07:09:39;;;;;;;1999.90;999.90;;;4.70;99.90;;;;;;5051789;28;20168;-70
2022/12/27 07:12:05;;;;;;;1999.90;999.90;;;4.80;99.90;;;;;;5051926;28;20160;-70
2022/12/27 07:14:30;;;;;;;1999.90;999.90;;;4.70;99.90;;;;;;5052026;28;20619;-70
2022/12/27 07:16:56;;;;;;;1999.90;999.90;;;4.80;99.90;;;;;;5051960;28;20413;-69
2022/12/27 07:19:21;;;;;;;1999.90;999.90;;;4.80;99.90;;;;;;5051712;28;20538;-70
2022/12/27 07:21:47;;;;;;;1999.90;999.90;;;4.80;99.90;;;;;;5051891;28;20179;-70
2022/12/27 07:24:12;;;;;;;1999.90;999.90;;;4.60;99.90;;;;;;5051651;28;20199;-70
2022/12/27 07:26:38;;;;;;;1999.90;999.90;;;4.80;99.90;;;;;;5051698;28;20625;-69
2022/12/27 07:29:04;;;;;;;1999.90;999.90;;;4.80;99.90;;;;;;5051744;28;20171;-69
2022/12/27 07:31:31;;;;;;;1999.90;999.90;;;4.80;99.90;;;;;;5052070;28;20178;-70
2022/12/27 07:33:59;;;;;;;1999.90;999.90;;;4.80;99.90;;;;;;5051806;28;20460;-70
2022/12/27 07:36:28;;;;;;;1999.90;999.90;;;4.80;99.90;;;;;;5051554;28;20461;-69
2022/12/27 07:38:54;;;;;;;1999.90;999.90;;;4.80;99.90;;;;;;5051532;28;20407;-69
2022/12/27 07:41:20;;;;;;;1999.90;999.90;;;4.90;99.90;;;;;;5051933;28;20866;-69
2022/12/27 07:43:45;;;;;;;1999.90;999.90;;;4.90;99.90;;;;;;5054636;28;20174;-69
2022/12/27 07:46:14;;;;;;;1999.90;999.90;;;4.90;99.90;;;;;;5053783;28;20449;-69
2022/12/27 07:48:40;;;;;;;1999.90;999.90;;;5.00;99.90;;;;;;5053754;28;20183;-69
2022/12/27 07:51:06;;;;;;;1999.90;999.90;;;5.00;99.90;;;;;;5053834;28;20403;-69
2022/12/27 07:53:32;;;;;;;1999.90;999.90;;;4.90;99.90;;;;;;5053877;28;20409;-69
2022/12/27 07:56:03;;;;;;;1999.90;999.90;;;5.00;99.90;;;;;;5053554;28;20414;-69
2022/12/27 07:58:29;;;;;;;1999.90;999.90;;;5.00;99.90;;;;;;5054003;28;20830;-69
2022/12/27 08:00:55;;;;;;;1999.90;999.90;;;5.00;99.90;;;;;;5053787;28;20406;-69
2022/12/27 08:03:20;;;;;;;1999.90;999.90;;;5.00;99.90;;;;;;5053521;28;20229;-69
2022/12/27 08:05:48;;;;;;;1999.90;999.90;;;5.10;99.90;;;;;;5052938;28;21017;-69
2022/12/27 08:08:16;;;;;;;1999.90;999.90;;;5.10;99.90;;;;;;5053375;28;20164;-69
2022/12/27 08:10:42;;;;;;;1999.90;999.90;;;5.20;99.90;;;;;;5055602;28;20841;-69
2022/12/27 08:13:08;;;;;;;1999.90;999.90;;;5.20;99.90;;;;;;5057382;28;20430;-69
2022/12/27 08:15:34;;;;;;;1999.90;999.90;;;5.10;99.90;;;;;;5056755;28;20282;-69
2022/12/27 08:18:00;;;;;;;1999.90;999.90;;;5.20;99.90;;;;;;5054815;28;20421;-69
2022/12/27 08:20:26;;;;;;;1999.90;999.90;;;5.20;99.90;;;;;;5054965;28;20440;-69
2022/12/27 08:22:52;;;;;;;1999.90;999.90;;;5.20;99.90;;;;;;5054908;28;20180;-69
2022/12/27 08:25:17;;;;;;;1999.90;999.90;;;5.20;99.90;;;;;;5054802;28;20453;-69
2022/12/27 08:27:43;;;;;;;1999.90;999.90;;;5.20;99.90;;;;;;5055082;28;20544;-70
2022/12/27 08:30:09;;;;;;;1999.90;999.90;;;5.20;99.90;;;;;;5055036;28;20512;-69
2022/12/27 08:32:34;;;;;;;1999.90;999.90;;;5.30;99.90;;;;;;5054849;28;20213;-69
2022/12/27 08:35:00;;;;;;;1999.90;999.90;;;5.30;99.90;;;;;;5054744;28;20803;-69
2022/12/27 08:37:25;;;;;;;1999.90;999.90;;;5.30;99.90;;;;;;5054268;28;20218;-69
2022/12/27 08:39:51;;;;;;;1999.90;999.90;;;5.30;99.90;;;;;;5054587;28;20179;-70
2022/12/27 08:42:17;;;;;;;1999.90;999.90;;;5.40;99.90;;;;;;5054558;28;20572;-70
2022/12/27 08:44:42;;;;;;;1999.90;999.90;;;5.40;99.90;;;;;;5054398;28;20257;-69
2022/12/27 08:47:08;;;;;;;1999.90;999.90;;;5.40;99.90;;;;;;5054367;28;20167;-69
2022/12/27 08:49:34;;;;;;;1999.90;999.90;;;5.50;99.90;;;;;;5054304;28;20460;-70
2022/12/27 08:51:59;;;;;;;1999.90;999.90;;;5.50;99.90;;;;;;5054410;28;20171;-69
2022/12/27 08:54:25;;;;;;;1999.90;999.90;;;5.50;99.90;;;;;;5054433;28;20175;-69
2022/12/27 08:56:50;;;;;;;1999.90;999.90;;;5.50;99.90;;;;;;5054273;28;20712;-69
2022/12/27 08:59:16;;;;;;;1999.90;999.90;;;5.60;99.90;;;;;;5054114;28;20164;-69
2022/12/27 09:01:42;;;;;;;1999.90;999.90;;;5.60;99.90;;;;;;5054254;28;20182;-68
2022/12/27 09:04:07;;;;;;;1999.90;999.90;;;5.60;99.90;;;;;;5054168;28;20172;-70
2022/12/27 09:06:33;;;;;;;1999.90;999.90;;;5.70;99.90;;;;;;5053938;28;20203;-69
2022/12/27 09:09:00;;;;;;;1999.90;999.90;;;5.70;96.70;;;;;;5053829;28;20765;-69
2022/12/27 09:11:29;;;;;;;1999.90;999.90;;;5.80;97.10;;;;;;5054219;28;20270;-69
2022/12/27 09:13:57;;;;;;;1999.90;999.90;;;5.80;95.60;;;;;;5054025;28;20429;-70
2022/12/27 09:16:26;;;;;;;1999.90;999.90;;;5.90;97.00;;;;;;5053747;28;20517;-69
2022/12/27 09:18:53;;;;;;;1999.90;999.90;;;5.90;93.20;;;;;;5053795;28;20434;-69
2022/12/27 09:21:20;;;;;;;1999.90;999.90;;;6.00;85.70;;;;;;5053034;28;20836;-70
2022/12/27 09:23:47;;;;;;;1999.90;999.90;;;6.00;76.70;;;;;;5053817;28;20403;-69
2022/12/27 09:26:15;;;;;;;1999.90;999.90;;;6.10;70.80;;;;;;5053600;28;20465;-69
2022/12/27 09:28:41;;;;;;;1999.90;999.90;;;6.20;66.60;;;;;;5053546;28;20445;-69
2022/12/27 09:31:09;;;;;;;1999.90;999.90;;;6.20;67.30;;;;;;5053694;28;20398;-69
2022/12/27 09:33:35;;;;;;;1999.90;999.90;;;6.30;58.20;;;;;;5053620;28;20410;-70
2022/12/27 09:36:06;;;;;;;1999.90;999.90;;;6.30;57.10;;;;;;5053421;28;20426;-69
2022/12/27 09:38:32;;;;;;;1999.90;999.90;;;6.40;49.00;;;;;;5053266;28;20437;-69
2022/12/27 09:41:00;;;;;;;1999.90;999.90;;;6.50;35.20;;;;;;5053403;28;20426;-69
2022/12/27 09:43:57;;;;;;;1999.90;999.90;;;6.50;28.30;;;;;;5053450;28;20196;-69
2022/12/27 09:46:54;;;;;;;1999.90;999.90;;;6.60;23.80;;;;;;5050719;28;20841;-69
2022/12/27 09:49:30;;;;;;;1999.90;999.90;;;6.60;14.40;;;;;;5052622;28;20437;-69
2022/12/27 09:52:05;;;;;;;1999.90;999.90;;;6.60;14.00;;;;;;5033030;28;20392;-69
2022/12/27 09:54:39;;;;;;;1999.90;999.90;;;6.80;6.40;;;;;;5033020;28;20492;-70
2022/12/27 09:57:20;;;;;;;1999.90;999.90;;;6.80;1.00;;;;;;5032802;28;20427;-71
2022/12/27 09:59:54;;;;;;;1999.90;999.90;;;6.90;1.00;;;;;;5031707;28;20417;-69
2022/12/27 10:02:25;;;;;;;1999.90;999.90;;;7.00;1.00;;;;;;5032812;28;20547;-66
2022/12/27 10:04:53;;;;;;;1999.90;999.90;;;7.00;1.00;;;;;;5015180;28;20494;-66
2022/12/27 10:07:37;;;;;;;1999.90;999.90;;;7.10;1.00;;;;;;5032232;28;20403;-69
2022/12/27 10:10:22;;;;;;;1999.90;999.90;;;7.20;1.00;;;;;;5032663;28;20403;-67
2022/12/27 10:13:07;;;;;;;1999.90;999.90;;;7.20;1.00;;;;;;5032209;28;20395;-67
2022/12/27 10:15:59;;;;;;;1999.90;999.90;;;7.30;1.00;;;;;;5032456;28;20798;-68
2022/12/27 10:18:37;;;;;;;1999.90;999.90;;;7.30;1.00;;;;;;5031457;28;20892;-69
2022/12/27 10:21:25;;;;;;;1999.90;999.90;;;7.40;1.00;;;;;;5032091;28;20168;-66
2022/12/27 10:24:02;;;;;;;1999.90;999.90;;;7.50;1.00;;;;;;5032241;28;20425;-67
2022/12/27 10:26:27;;;;;;;1999.90;999.90;;;7.50;1.00;;;;;;5032231;28;20471;-67
2022/12/27 10:29:14;;;;;;;1999.90;999.90;;;7.50;1.00;;;;;;5031881;28;20467;-67
2022/12/27 10:31:42;;;;;;;1999.90;999.90;;;7.60;1.00;;;;;;5042579;28;20176;-67
2022/12/27 10:34:12;;;;;;;1999.90;999.90;;;7.80;1.00;;;;;;5051217;28;20944;-67
2022/12/27 10:36:40;;;;;;;1999.90;999.90;;;7.70;1.00;;;;;;5050492;28;20417;-67
2022/12/27 10:39:19;;;;;;;1999.90;999.90;;;7.70;1.00;;;;;;5050810;28;20459;-70
2022/12/27 10:42:06;;;;;;;1999.90;999.90;;;7.80;1.00;;;;;;5050444;28;20443;-67
2022/12/27 10:44:32;;;;;;;1999.90;999.90;;;7.90;1.00;;;;;;5051143;28;20454;-67
2022/12/27 10:46:58;;;;;;;1999.90;999.90;;;7.90;1.00;;;;;;5061586;22;20487;-65
2022/12/27 10:49:25;;;;;;;1999.90;999.90;;;8.00;1.00;;;;;;5034131;28;20563;-67
2022/12/27 10:51:54;;;;;;;1999.90;999.90;;;8.10;1.00;;;;;;5034048;28;20760;-67
2022/12/27 10:54:28;;;;;;;1999.90;999.90;;;8.20;1.00;;;;;;5033156;28;20405;-66
2022/12/27 10:56:55;;;;;;;1999.90;999.90;;;8.30;1.00;;;;;;5032300;28;20851;-66
2022/12/27 10:59:26;;;;;;;1999.90;999.90;;;8.50;1.00;;;;;;5032787;28;20454;-65
2022/12/27 11:02:01;;;;;;;1999.90;999.90;;;8.40;99.90;;;;;;5033521;28;20395;-68
2022/12/27 11:04:28;;;;;;;1999.90;999.90;;;8.50;99.90;;;;;;5032765;28;20453;-68
2022/12/27 11:07:03;;;;;;;1999.90;999.90;;;8.60;99.90;;;;;;5033491;28;20762;-67
2022/12/27 11:09:32;;;;;;;1999.90;999.90;;;8.60;99.90;;;;;;5032263;28;20773;-67
2022/12/27 11:12:15;;;;;;;1999.90;999.90;;;8.60;99.90;;;;;;5033550;28;20414;-67
2022/12/27 11:14:53;;;;;;;1999.90;999.90;;;8.50;99.90;;;;;;5032591;28;20403;-65
2022/12/27 11:17:23;;;;;;;1999.90;999.90;;;8.50;99.90;;;;;;5014842;28;20506;-67
2022/12/27 11:19:49;;;;;;;1999.90;999.90;;;8.50;99.90;;;;;;5033686;28;20404;-68
2022/12/27 11:22:15;;;;;;;1999.90;999.90;;;8.50;99.90;;;;;;5033232;28;20429;-68
2022/12/27 11:24:46;;;;;;;1999.90;999.90;;;8.60;99.90;;;;;;5032138;28;20448;-67
2022/12/27 11:27:23;;;;;;;1999.90;999.90;;;8.40;1.00;;;;;;5031866;28;20419;-67
2022/12/27 11:29:50;;;;;;;1999.90;999.90;;;8.30;1.00;;;;;;5032680;28;20398;-68
2022/12/27 11:32:16;;;;;;;1999.90;999.90;;;8.20;1.00;;;;;;5032408;28;20556;-69
2022/12/27 11:34:45;;;;;;;1999.90;999.90;;;8.20;1.00;;;;;;5031696;28;20415;-67
2022/12/27 11:37:14;;;;;;;1999.90;999.90;;;8.30;1.00;;;;;;5032675;28;20874;-68
2022/12/27 11:39:50;;;;;;;1999.90;999.90;;;8.60;1.00;;;;;;5032591;28;20420;-68
2022/12/27 11:42:39;;;;;;;1999.90;999.90;;;9.20;99.90;;;;;;5031747;28;20415;-66
2022/12/27 11:45:22;;;;;;;1999.90;999.90;;;9.90;91.00;;;;;;5034041;28;20443;-67
2022/12/27 11:48:04;;;;;;;1999.90;999.90;;;10.40;99.90;;;;;;5020823;28;20444;-67
2022/12/27 11:50:46;;;;;;;1999.90;999.90;;;10.70;63.60;;;;;;5036559;28;20413;-66
2022/12/27 11:53:37;;;;;;;1999.90;999.90;;;11.00;1.00;;;;;;5037479;28;20476;-68
2022/12/27 11:56:17;;;;;;;1999.90;999.90;;;11.30;99.90;;;;;;5019597;28;20429;-68
2022/12/27 11:59:01;;;;;;;1999.90;999.90;;;11.50;1.00;;;;;;5036977;28;20486;-66
2022/12/27 12:02:05;;;;;;;1999.90;999.90;;;11.50;96.40;;;;;;5036238;28;20412;-66
2022/12/27 12:04:49;;;;;;;1999.90;999.90;;;11.60;99.90;;;;;;5037453;28;20453;-66
2022/12/27 12:07:45;;;;;;;1999.90;999.90;;;11.70;99.90;;;;;;5038083;28;20448;-68
2022/12/27 12:11:05;;;;;;;1999.90;999.90;;;11.90;99.90;;;;;;5036790;28;21173;-66
2022/12/27 12:13:39;;;;;;;1999.90;999.90;;;11.90;99.90;;;;;;5036089;28;20399;-68
2022/12/27 12:16:39;;;;;;;1999.90;999.90;;;11.70;99.90;;;;;;5036731;28;20402;-66
2022/12/27 12:19:17;;;;;;;1999.90;999.90;;;11.30;1.00;;;;;;5035907;28;21089;-68
2022/12/27 12:21:58;;;;;;;1999.90;999.90;;;11.00;1.00;;;;;;5036991;28;20814;-67
2022/12/27 12:24:39;;;;;;;1999.90;999.90;;;10.70;99.90;;;;;;5018541;28;20446;-68
2022/12/27 12:27:27;;;;;;;1999.90;999.90;;;10.50;1.00;;;;;;5034565;28;20429;-67
2022/12/27 12:30:22;;;;;;;1999.90;999.90;;;10.60;99.90;;;;;;5038105;28;20417;-69
2022/12/27 12:33:17;;;;;;;1999.90;999.90;;;10.60;99.90;;;;;;5035764;28;20435;-67
2022/12/27 12:36:02;;;;;;;1999.90;999.90;;;10.70;1.00;;;;;;5036001;28;20497;-68
2022/12/27 12:39:32;;;;;;;1999.90;999.90;;;10.70;99.90;;;;;;5036330;28;20470;-67
2022/12/27 12:42:13;;;;;;;1999.90;999.90;;;10.80;99.90;;;;;;4962377;28;20439;-68
2022/12/27 12:44:59;;;;;;;1999.90;999.90;;;10.70;1.00;;;;;;4974995;28;20464;-69
2022/12/27 12:47:37;;;;;;;1999.90;999.90;;;10.70;1.00;;;;;;5018048;28;21016;-70
2022/12/27 12:50:02;;;;;;;1999.90;999.90;;;10.70;99.90;;;;;;5037168;28;20411;-67
2022/12/27 12:52:48;;;;;;;1999.90;999.90;;;10.70;99.90;;;;;;5037497;28;20421;-68
2022/12/27 12:55:29;;;;;;;1999.90;999.90;;;10.70;1.00;;;;;;5021814;28;20651;-68
2022/12/27 12:57:54;;;;;;;1999.90;999.90;;;10.70;99.90;;;;;;5033896;28;20854;-67
2022/12/27 13:00:41;;;;;;;1999.90;999.90;;;10.70;1.00;;;;;;5035949;28;20445;-67
2022/12/27 13:03:09;;;;;;;1999.90;999.90;;;10.90;1.00;;;;;;5036897;28;20235;-67
2022/12/27 13:05:57;;;;;;;1999.90;999.90;;;11.40;99.90;;;;;;5035487;28;20450;-67
2022/12/27 13:08:41;;;;;;;1999.90;999.90;;;11.90;99.90;;;;;;5035087;28;20426;-67
2022/12/27 13:11:30;;;;;;;1999.90;999.90;;;12.30;1.00;;;;;;5016591;28;20434;-67
2022/12/27 13:14:25;;;;;;;1999.90;999.90;;;12.70;99.90;;;;;;5035380;28;20497;-67
2022/12/27 13:17:01;;;;;;;1999.90;999.90;;;13.20;99.90;;;;;;5034454;28;20435;-67
2022/12/27 13:19:53;;;;;;;1999.90;999.90;;;13.40;1.00;;;;;;5034679;28;20412;-66
2022/12/27 13:22:27;;;;;;;1999.90;999.90;;;13.40;1.00;;;;;;5034986;28;20464;-66
2022/12/27 13:25:09;;;;;;;1999.90;999.90;;;13.30;1.00;;;;;;5034379;28;20524;-67
2022/12/27 13:27:57;;;;;;;1999.90;999.90;;;12.80;1.00;;;;;;5017639;28;21034;-66
2022/12/27 13:30:46;;;;;;;1999.90;999.90;;;12.30;1.00;;;;;;5034627;28;20433;-68
2022/12/27 13:33:28;;;;;;;1999.90;999.90;;;11.60;99.90;;;;;;5033735;28;20490;-69
2022/12/27 13:36:19;;;;;;;1999.90;999.90;;;11.20;99.90;;;;;;5034329;28;20457;-67
2022/12/27 13:39:12;;;;;;;1999.90;999.90;;;11.00;1.00;;;;;;5035636;28;20415;-67
2022/12/27 13:41:46;;;;;;;1999.90;999.90;;;10.80;1.00;;;;;;5033787;28;20800;-68
2022/12/27 13:44:37;;;;;;;1999.90;999.90;;;10.80;19.60;;;;;;5034368;28;20423;-69
2022/12/27 13:47:30;;;;;;;1999.90;999.90;;;10.80;99.90;;;;;;5033583;28;20454;-69
2022/12/27 13:50:13;;;;;;;1999.90;999.90;;;10.80;99.90;;;;;;5034148;28;20904;-67
2022/12/27 13:53:04;;;;;;;1999.90;999.90;;;10.80;1.00;;;;;;5033910;28;20442;-67
2022/12/27 13:55:48;;;;;;;1999.90;999.90;;;11.00;99.90;;;;;;5033276;28;20893;-67
2022/12/27 13:58:31;;;;;;;1999.90;999.90;;;10.80;99.90;;;;;;5033134;28;20437;-66
2022/12/27 14:01:18;;;;;;;1999.90;999.90;;;10.70;1.00;;;;;;5034592;28;20418;-67
2022/12/27 14:04:10;;;;;;;1999.90;999.90;;;10.60;99.90;;;;;;5033622;28;20434;-68
2022/12/27 14:07:13;;;;;;;1999.90;999.90;;;10.50;1.00;;;;;;4995391;28;20557;-69
2022/12/27 14:09:55;;;;;;;1999.90;999.90;;;10.40;99.90;;;;;;4977955;28;20829;-68
2022/12/27 14:12:23;;;;;;;1999.90;999.90;;;10.10;99.90;;;;;;5034122;28;20902;-68
2022/12/27 14:14:50;;;;;;;1999.90;999.90;;;10.00;1.00;;;;;;5032962;28;20414;-66
2022/12/27 14:17:36;;;;;;;1999.90;999.90;;;9.90;1.00;;;;;;5032099;28;20733;-68